createdAt,value
2023-02-11T00:00:43.390Z,9.358473
2023-02-11T00:01:43.435Z,9.358493
2023-02-11T00:02:45.496Z,9.358411
2023-02-11T00:03:43.434Z,9.358450
2023-02-11T00:04:43.369Z,9.358469
2023-02-11T00:05:43.365Z,9.358497
2023-02-11T00:06:43.332Z,9.358504
2023-02-11T00:07:43.336Z,9.358517
2023-02-11T00:08:43.334Z,9.358524
2023-02-11T00:09:43.311Z,9.358418
2023-02-11T00:10:43.302Z,9.358433
2023-02-11T00:11:43.303Z,9.358459
2023-02-11T00:12:43.292Z,9.358484
2023-02-11T00:13:43.292Z,9.358481
2023-02-11T00:14:43.278Z,9.358395
2023-02-11T00:15:43.240Z,9.358474
2023-02-11T00:16:43.349Z,9.358535
2023-02-11T00:17:43.235Z,9.358491
2023-02-11T00:18:43.235Z,9.358393
2023-02-11T00:19:43.222Z,9.358455
2023-02-11T00:20:43.207Z,9.358537
2023-02-11T00:21:43.175Z,9.358482
2023-02-11T00:22:44.187Z,9.358409
2023-02-11T00:23:43.175Z,9.358404
2023-02-11T00:24:43.162Z,9.358541
2023-02-11T00:25:43.150Z,9.358571
2023-02-11T00:26:43.126Z,9.358494
2023-02-11T00:27:43.126Z,9.358514
2023-02-11T00:28:43.120Z,9.358550
2023-02-11T00:29:43.108Z,9.358598
2023-02-11T00:30:43.289Z,9.358505
2023-02-11T00:31:43.273Z,9.358445
2023-02-11T00:32:43.071Z,9.358408
2023-02-11T00:33:43.064Z,9.358373
2023-02-11T00:34:43.055Z,9.358397
2023-02-11T00:35:43.022Z,9.358414
2023-02-11T00:37:15.158Z,9.358386
2023-02-11T00:37:43.056Z,9.358445
2023-02-11T00:38:43.016Z,9.358470
2023-02-11T00:39:43.009Z,9.358528
2023-02-11T00:40:42.963Z,9.358518
2023-02-11T00:41:42.970Z,9.358559
2023-02-11T00:42:43.004Z,9.358487
2023-02-11T00:43:42.934Z,9.358480
2023-02-11T00:44:42.966Z,9.358495
2023-02-11T00:45:42.940Z,9.358466
2023-02-11T00:46:42.965Z,9.358500
2023-02-11T00:47:42.924Z,9.358540
2023-02-11T00:48:42.922Z,9.358544
2023-02-11T00:49:42.911Z,9.358584
2023-02-11T00:50:42.888Z,9.358550
2023-02-11T00:51:42.887Z,9.358570
2023-02-11T00:52:42.861Z,9.358577
2023-02-11T00:53:42.861Z,9.358603
2023-02-11T00:54:42.843Z,9.358589
2023-02-11T00:55:42.821Z,9.358650
2023-02-11T00:56:42.797Z,9.358714
2023-02-11T00:57:42.857Z,9.358591
2023-02-11T00:58:42.818Z,9.358513
2023-02-11T00:59:42.756Z,9.358500
2023-02-11T01:00:42.780Z,9.358531
2023-02-11T01:01:42.808Z,9.358497
2023-02-11T01:02:42.741Z,9.358523
2023-02-11T01:03:42.744Z,9.358534
2023-02-11T01:04:42.753Z,9.358587
2023-02-11T01:05:42.721Z,9.358675
2023-02-11T01:06:42.693Z,9.358680
2023-02-11T01:07:42.721Z,9.358635
2023-02-11T01:08:42.711Z,9.358563
2023-02-11T01:09:42.678Z,9.358475
2023-02-11T01:10:42.659Z,9.358352
2023-02-11T01:11:42.659Z,9.358440
2023-02-11T01:12:42.668Z,9.358468
2023-02-11T01:13:42.633Z,9.358502
2023-02-11T01:14:42.609Z,9.358550
2023-02-11T01:15:42.638Z,9.358533
2023-02-11T01:16:42.594Z,9.358547
2023-02-11T01:17:42.610Z,9.358563
2023-02-11T01:18:42.621Z,9.358560
2023-02-11T01:19:42.577Z,9.358493
2023-02-11T01:20:42.586Z,9.358474
2023-02-11T01:21:42.556Z,9.358518
2023-02-11T01:22:42.587Z,9.358591
2023-02-11T01:23:42.522Z,9.358560
2023-02-11T01:24:42.548Z,9.358505
2023-02-11T01:25:42.509Z,9.358503
2023-02-11T01:26:42.514Z,9.358504
2023-02-11T01:27:42.503Z,9.358521
2023-02-11T01:28:42.493Z,9.358665
2023-02-11T01:29:42.500Z,9.358677
2023-02-11T01:30:42.492Z,9.358610
2023-02-11T01:31:42.480Z,9.358518
2023-02-11T01:32:42.424Z,9.358511
2023-02-11T01:33:42.419Z,9.358589
2023-02-11T01:34:42.447Z,9.358560
2023-02-11T01:35:42.441Z,9.358535
2023-02-11T01:36:42.415Z,9.358546
2023-02-11T01:37:42.375Z,9.358582
2023-02-11T01:38:42.414Z,9.358561
2023-02-11T01:39:42.365Z,9.358556
2023-02-11T01:40:42.348Z,9.358600
2023-02-11T01:41:42.354Z,9.358637
2023-02-11T01:42:42.351Z,9.358617
2023-02-11T01:43:42.329Z,9.358540
2023-02-11T01:44:42.318Z,9.358543
2023-02-11T01:45:42.332Z,9.358588
2023-02-11T01:46:42.353Z,9.358592
2023-02-11T01:47:42.274Z,9.358599
2023-02-11T01:48:42.323Z,9.358604
2023-02-11T01:49:42.262Z,9.358587
2023-02-11T01:50:42.249Z,9.358606
2023-02-11T01:51:42.228Z,9.358669
2023-02-11T01:52:42.276Z,9.358645
2023-02-11T01:53:42.241Z,9.358561
2023-02-11T01:54:42.178Z,9.358601
2023-02-11T01:55:42.211Z,9.358628
2023-02-11T01:56:42.222Z,9.358665
2023-02-11T01:57:42.174Z,9.358586
2023-02-11T01:58:42.206Z,9.358569
2023-02-11T01:59:42.177Z,9.358588
2023-02-11T02:00:42.128Z,9.358600
2023-02-11T02:01:42.160Z,9.358573
2023-02-11T02:02:42.140Z,9.358535
2023-02-11T02:03:42.144Z,9.358531
2023-02-11T02:04:42.138Z,9.358648
2023-02-11T02:05:42.133Z,9.358644
2023-02-11T02:06:42.059Z,9.358632
2023-02-11T02:07:42.084Z,9.358657
2023-02-11T02:08:42.070Z,9.358653
2023-02-11T02:09:42.066Z,9.358659
2023-02-11T02:10:42.025Z,9.358606
2023-02-11T02:11:42.038Z,9.358601
2023-02-11T02:12:42.033Z,9.358588
2023-02-11T02:13:42.022Z,9.358527
2023-02-11T02:14:42.016Z,9.358525
2023-02-11T02:15:42.030Z,9.358582
2023-02-11T02:16:42.066Z,9.358633
2023-02-11T02:17:41.963Z,9.358649
2023-02-11T02:18:41.942Z,9.358642
2023-02-11T02:19:41.976Z,9.358569
2023-02-11T02:20:41.922Z,9.358565
2023-02-11T02:21:41.907Z,9.358571
2023-02-11T02:22:41.922Z,9.358517
2023-02-11T02:23:41.909Z,9.358561
2023-02-11T02:24:41.908Z,9.358585
2023-02-11T02:25:41.863Z,9.358574
2023-02-11T02:26:41.899Z,9.358500
2023-02-11T02:27:41.857Z,9.358535
2023-02-11T02:28:41.869Z,9.358552
2023-02-11T02:29:41.842Z,9.358552
2023-02-11T02:30:41.838Z,9.358502
2023-02-11T02:31:41.870Z,9.358582
2023-02-11T02:32:41.813Z,9.358545
2023-02-11T02:33:41.825Z,9.358523
2023-02-11T02:34:41.761Z,9.358569
2023-02-11T02:35:41.791Z,9.358530
2023-02-11T02:36:41.828Z,9.358536
2023-02-11T02:37:41.740Z,9.358540
2023-02-11T02:38:41.769Z,9.358586
2023-02-11T02:39:41.735Z,9.358659
2023-02-11T02:40:41.730Z,9.358584
2023-02-11T02:41:41.715Z,9.358616
2023-02-11T02:42:41.739Z,9.358546
2023-02-11T02:43:41.686Z,9.358546
2023-02-11T02:44:41.701Z,9.358598
2023-02-11T02:45:41.685Z,9.358575
2023-02-11T02:46:41.741Z,9.358549
2023-02-11T02:47:41.640Z,9.358582
2023-02-11T02:48:41.632Z,9.358519
2023-02-11T02:49:41.643Z,9.358573
2023-02-11T02:50:41.636Z,9.358665
2023-02-11T02:51:41.604Z,9.358545
2023-02-11T02:52:41.620Z,9.358534
2023-02-11T02:53:41.595Z,9.358507
2023-02-11T02:54:41.563Z,9.358511
2023-02-11T02:55:41.583Z,9.358564
2023-02-11T02:56:41.584Z,9.358585
2023-02-11T02:57:41.536Z,9.358581
2023-02-11T02:58:41.535Z,9.358570
2023-02-11T02:59:41.540Z,9.358519
2023-02-11T03:00:41.536Z,9.358498
2023-02-11T03:01:41.522Z,9.358504
2023-02-11T03:02:41.524Z,9.358579
2023-02-11T03:03:41.504Z,9.358581
2023-02-11T03:04:41.456Z,9.358596
2023-02-11T03:05:41.474Z,9.358586
2023-02-11T03:06:41.472Z,9.358611
2023-02-11T03:07:41.445Z,9.358580
2023-02-11T03:08:41.442Z,9.358521
2023-02-11T03:09:41.448Z,9.358576
2023-02-11T03:10:41.399Z,9.358593
2023-02-11T03:11:41.416Z,9.358600
2023-02-11T03:12:41.448Z,9.358649
2023-02-11T03:13:41.405Z,9.358647
2023-02-11T03:14:41.362Z,9.358624
2023-02-11T03:15:41.376Z,9.358601
2023-02-11T03:16:41.400Z,9.358652
2023-02-11T03:17:41.360Z,9.358584
2023-02-11T03:18:41.330Z,9.358542
2023-02-11T03:19:41.315Z,9.358478
2023-02-11T03:20:41.382Z,9.358519
2023-02-11T03:21:41.301Z,9.358563
2023-02-11T03:22:41.281Z,9.358740
2023-02-11T03:23:41.312Z,9.358685
2023-02-11T03:24:41.283Z,9.358602
2023-02-11T03:25:41.253Z,9.358710
2023-02-11T03:26:41.319Z,9.358649
2023-02-11T03:27:41.270Z,9.358644
2023-02-11T03:28:41.210Z,9.358725
2023-02-11T03:29:41.222Z,9.358658
2023-02-11T03:30:41.312Z,9.358630
2023-02-11T03:31:41.396Z,9.358680
2023-02-11T03:32:41.241Z,9.358697
2023-02-11T03:33:41.184Z,9.358755
2023-02-11T03:34:41.151Z,9.358662
2023-02-11T03:35:41.160Z,9.358647
2023-02-11T03:36:41.176Z,9.358660
2023-02-11T03:37:41.124Z,9.358695
2023-02-11T03:38:41.133Z,9.358691
2023-02-11T03:39:41.124Z,9.358536
2023-02-11T03:40:41.076Z,9.358587
2023-02-11T03:41:41.115Z,9.358577
2023-02-11T03:42:41.118Z,9.358616
2023-02-11T03:43:41.086Z,9.358567
2023-02-11T03:44:41.050Z,9.358566
2023-02-11T03:45:41.113Z,9.358535
2023-02-11T03:46:41.057Z,9.358593
2023-02-11T03:47:41.034Z,9.358643
2023-02-11T03:48:41.018Z,9.358626
2023-02-11T03:49:41.012Z,9.358539
2023-02-11T03:50:41.009Z,9.358583
2023-02-11T03:51:41.023Z,9.358597
2023-02-11T03:52:40.964Z,9.358642
2023-02-11T03:53:40.981Z,9.358650
2023-02-11T03:54:40.979Z,9.358446
2023-02-11T03:55:40.933Z,9.358529
2023-02-11T03:56:40.952Z,9.358556
2023-02-11T03:57:40.953Z,9.358572
2023-02-11T03:58:41.894Z,9.358481
2023-02-11T03:59:40.909Z,9.358422
2023-02-11T04:00:40.910Z,9.358492
2023-02-11T04:01:40.920Z,9.358517
2023-02-11T04:02:40.871Z,9.358558
2023-02-11T04:03:40.918Z,9.358481
2023-02-11T04:04:40.850Z,9.358512
2023-02-11T04:05:40.840Z,9.358546
2023-02-11T04:06:40.847Z,9.358541
2023-02-11T04:07:40.848Z,9.358609
2023-02-11T04:08:40.792Z,9.358573
2023-02-11T04:09:40.793Z,9.358562
2023-02-11T04:10:40.838Z,9.358496
2023-02-11T04:11:40.791Z,9.358524
2023-02-11T04:12:40.775Z,9.358570
2023-02-11T04:13:40.760Z,9.358561
2023-02-11T04:14:40.766Z,9.358590
2023-02-11T04:15:40.748Z,9.358630
2023-02-11T04:16:40.820Z,9.358686
2023-02-11T04:17:40.734Z,9.358654
2023-02-11T04:18:40.706Z,9.358590
2023-02-11T04:19:40.707Z,9.358576
2023-02-11T04:20:40.701Z,9.358656
2023-02-11T04:21:40.678Z,9.358644
2023-02-11T04:22:40.707Z,9.358629
2023-02-11T04:23:40.663Z,9.358610
2023-02-11T04:24:40.633Z,9.358624
2023-02-11T04:25:40.623Z,9.358644
2023-02-11T04:26:40.672Z,9.358647
2023-02-11T04:27:40.611Z,9.358682
2023-02-11T04:28:40.623Z,9.358711
2023-02-11T04:29:40.645Z,9.358647
2023-02-11T04:30:40.605Z,9.358620
2023-02-11T04:31:40.603Z,9.358592
2023-02-11T04:32:40.574Z,9.358560
2023-02-11T04:33:40.651Z,9.358553
2023-02-11T04:34:40.520Z,9.358553
2023-02-11T04:35:40.541Z,9.358584
2023-02-11T04:36:40.556Z,9.358628
2023-02-11T04:37:40.507Z,9.358640
2023-02-11T04:38:40.528Z,9.358693
2023-02-11T04:39:40.483Z,9.358734
2023-02-11T04:40:40.505Z,9.358624
2023-02-11T04:41:40.454Z,9.358582
2023-02-11T04:42:40.496Z,9.358576
2023-02-11T04:43:40.453Z,9.358569
2023-02-11T04:44:40.577Z,9.358566
2023-02-11T04:45:40.478Z,9.358621
2023-02-11T04:46:40.414Z,9.358739
2023-02-11T04:47:40.427Z,9.358707
2023-02-11T04:48:40.420Z,9.358712
2023-02-11T04:49:40.410Z,9.358699
2023-02-11T04:50:40.373Z,9.358637
2023-02-11T04:51:40.397Z,9.358667
2023-02-11T04:52:40.387Z,9.358617
2023-02-11T04:53:40.350Z,9.358490
2023-02-11T04:54:40.332Z,9.358580
2023-02-11T04:55:40.345Z,9.358618
2023-02-11T04:56:40.350Z,9.358570
2023-02-11T04:57:40.343Z,9.358635
2023-02-11T04:58:40.311Z,9.358583
2023-02-11T04:59:40.324Z,9.358591
2023-02-11T05:00:40.259Z,9.358512
2023-02-11T05:01:40.285Z,9.358543
2023-02-11T05:02:40.282Z,9.358512
2023-02-11T05:03:40.259Z,9.358487
2023-02-11T05:04:40.231Z,9.358569
2023-02-11T05:05:40.268Z,9.358547
2023-02-11T05:06:40.222Z,9.358572
2023-02-11T05:07:40.188Z,9.358524
2023-02-11T05:08:40.200Z,9.358477
2023-02-11T05:09:40.217Z,9.358547
2023-02-11T05:10:40.157Z,9.358564
2023-02-11T05:11:40.156Z,9.358546
2023-02-11T05:12:40.165Z,9.358468
2023-02-11T05:13:41.164Z,9.358521
2023-02-11T05:14:40.187Z,9.358410
2023-02-11T05:15:40.129Z,9.358525
2023-02-11T05:16:40.198Z,9.358693
2023-02-11T05:17:40.111Z,9.358621
2023-02-11T05:18:40.108Z,9.358580
2023-02-11T05:19:40.101Z,9.358580
2023-02-11T05:20:40.081Z,9.358582
2023-02-11T05:21:42.361Z,9.358541
2023-02-11T05:22:42.067Z,9.358580
2023-02-11T05:23:40.064Z,9.358619
2023-02-11T05:24:40.023Z,9.358539
2023-02-11T05:25:40.040Z,9.358494
2023-02-11T05:26:40.018Z,9.358545
2023-02-11T05:27:40.003Z,9.358561
2023-02-11T05:28:40.015Z,9.358474
2023-02-11T05:29:39.996Z,9.358485
2023-02-11T05:30:40.067Z,9.358463
2023-02-11T05:31:39.932Z,9.358484
2023-02-11T05:32:39.971Z,9.358592
2023-02-11T05:33:39.968Z,9.358578
2023-02-11T05:34:39.933Z,9.358528
2023-02-11T05:35:39.928Z,9.358487
2023-02-11T05:36:39.908Z,9.358444
2023-02-11T05:37:40.962Z,9.358571
2023-02-11T05:38:39.881Z,9.358603
2023-02-11T05:39:39.926Z,9.358753
2023-02-11T05:40:39.861Z,9.358687
2023-02-11T05:41:39.845Z,9.358623
2023-02-11T05:42:39.860Z,9.358650
2023-02-11T05:43:39.857Z,9.358607
2023-02-11T05:44:39.819Z,9.358582
2023-02-11T05:45:39.816Z,9.358545
2023-02-11T05:46:39.886Z,9.358544
2023-02-11T05:47:39.783Z,9.358603
2023-02-11T05:48:39.812Z,9.358584
2023-02-11T05:49:39.775Z,9.358572
2023-02-11T05:50:39.777Z,9.358579
2023-02-11T05:51:39.761Z,9.358598
2023-02-11T05:52:39.778Z,9.358567
2023-02-11T05:53:39.734Z,9.358624
2023-02-11T05:54:39.728Z,9.358615
2023-02-11T05:55:39.729Z,9.358618
2023-02-11T05:56:39.707Z,9.358567
2023-02-11T05:57:39.732Z,9.358583
2023-02-11T05:58:39.664Z,9.358607
2023-02-11T05:59:39.684Z,9.358558
2023-02-11T06:00:39.697Z,9.358619
2023-02-11T06:01:39.664Z,9.358568
2023-02-11T06:02:39.730Z,9.358551
2023-02-11T06:03:39.711Z,9.358547
2023-02-11T06:04:39.596Z,9.358548
2023-02-11T06:05:39.599Z,9.358601
2023-02-11T06:06:39.628Z,9.358560
2023-02-11T06:07:39.598Z,9.358624
2023-02-11T06:08:39.653Z,9.358619
2023-02-11T06:09:39.571Z,9.358570
2023-02-11T06:10:39.577Z,9.358554
2023-02-11T06:11:39.548Z,9.358546
2023-02-11T06:12:39.550Z,9.358543
2023-02-11T06:13:39.529Z,9.358560
2023-02-11T06:14:39.556Z,9.358535
2023-02-11T06:15:39.533Z,9.358583
2023-02-11T06:16:39.517Z,9.358609
2023-02-11T06:17:39.511Z,9.358617
2023-02-11T06:18:39.456Z,9.358617
2023-02-11T06:19:39.474Z,9.358597
2023-02-11T06:20:39.465Z,9.358568
2023-02-11T06:21:44.298Z,9.358552
2023-02-11T06:22:41.507Z,9.358604
2023-02-11T06:23:39.426Z,9.358612
2023-02-11T06:24:59.831Z,9.358528
2023-02-11T06:25:41.415Z,9.358549
2023-02-11T06:26:39.418Z,9.358549
2023-02-11T06:27:39.379Z,9.358550
2023-02-11T06:28:41.906Z,9.358566
2023-02-11T06:29:40.363Z,9.358546
2023-02-11T06:30:39.335Z,9.358646
2023-02-11T06:31:39.691Z,9.358646
2023-02-11T06:32:44.386Z,9.358696
2023-02-11T06:33:41.356Z,9.358733
2023-02-11T06:34:39.378Z,9.358544
2023-02-11T06:35:39.353Z,9.358484
2023-02-11T06:36:39.303Z,9.358547
2023-02-11T06:38:11.607Z,9.358523
2023-02-11T06:38:39.312Z,9.358489
2023-02-11T06:39:39.264Z,9.358586
2023-02-11T06:40:39.271Z,9.358625
2023-02-11T06:41:39.244Z,9.358662
2023-02-11T06:42:39.539Z,9.358640
2023-02-11T06:43:39.239Z,9.358644
2023-02-11T06:44:39.202Z,9.358603
2023-02-11T06:45:39.234Z,9.358682
2023-02-11T06:46:39.279Z,9.358623
2023-02-11T06:47:39.198Z,9.358608
2023-02-11T06:48:39.157Z,9.358620
2023-02-11T06:49:40.156Z,9.358623
2023-02-11T06:50:39.155Z,9.358595
2023-02-11T06:51:39.148Z,9.358545
2023-02-11T06:52:39.129Z,9.358582
2023-02-11T06:53:39.133Z,9.358495
2023-02-11T06:54:39.100Z,9.358477
2023-02-11T06:55:40.108Z,9.358497
2023-02-11T06:56:39.118Z,9.358552
2023-02-11T06:57:39.095Z,9.358603
2023-02-11T06:58:39.071Z,9.358605
2023-02-11T06:59:39.049Z,9.358627
2023-02-11T07:00:39.097Z,9.358644
2023-02-11T07:01:39.092Z,9.358735
2023-02-11T07:02:39.080Z,9.358585
2023-02-11T07:03:39.038Z,9.358567
2023-02-11T07:04:39.005Z,9.358510
2023-02-11T07:05:38.997Z,9.358485
2023-02-11T07:06:38.993Z,9.358528
2023-02-11T07:07:38.969Z,9.358498
2023-02-11T07:08:38.985Z,9.358520
2023-02-11T07:09:38.974Z,9.358549
2023-02-11T07:10:38.942Z,9.358604
2023-02-11T07:11:38.954Z,9.358634
2023-02-11T07:12:38.925Z,9.358616
2023-02-11T07:13:38.898Z,9.358499
2023-02-11T07:14:38.912Z,9.358491
2023-02-11T07:15:38.894Z,9.358502
2023-02-11T07:16:38.913Z,9.358487
2023-02-11T07:17:38.866Z,9.358534
2023-02-11T07:18:38.875Z,9.358625
2023-02-11T07:19:38.851Z,9.358704
2023-02-11T07:20:38.856Z,9.358706
2023-02-11T07:21:38.829Z,9.358705
2023-02-11T07:22:38.811Z,9.358703
2023-02-11T07:23:38.810Z,9.358669
2023-02-11T07:24:39.810Z,9.358617
2023-02-11T07:25:38.791Z,9.358662
2023-02-11T07:26:38.768Z,9.358673
2023-02-11T07:27:38.809Z,9.358588
2023-02-11T07:28:38.747Z,9.358554
2023-02-11T07:29:38.750Z,9.358595
2023-02-11T07:30:38.737Z,9.358641
2023-02-11T07:31:38.854Z,9.358676
2023-02-11T07:32:38.726Z,9.358623
2023-02-11T07:33:38.725Z,9.358605
2023-02-11T07:34:38.771Z,9.358668
2023-02-11T07:35:40.982Z,9.358699
2023-02-11T07:36:38.661Z,9.358631
2023-02-11T07:37:38.695Z,9.358609
2023-02-11T07:38:38.654Z,9.358638
2023-02-11T07:39:38.639Z,9.358592
2023-02-11T07:40:38.639Z,9.358615
2023-02-11T07:41:38.670Z,9.358624
2023-02-11T07:42:38.616Z,9.358685
2023-02-11T07:43:38.606Z,9.358629
2023-02-11T07:44:38.624Z,9.358624
2023-02-11T07:45:38.575Z,9.358612
2023-02-11T07:46:38.599Z,9.358599
2023-02-11T07:47:38.824Z,9.358561
2023-02-11T07:48:38.556Z,9.358507
2023-02-11T07:49:38.583Z,9.358523
2023-02-11T07:50:38.549Z,9.358577
2023-02-11T07:51:38.529Z,9.358555
2023-02-11T07:52:38.507Z,9.358554
2023-02-11T07:53:38.518Z,9.358560
2023-02-11T07:54:38.500Z,9.358552
2023-02-11T07:55:38.466Z,9.358558
2023-02-11T07:56:38.484Z,9.358618
2023-02-11T07:57:38.496Z,9.358621
2023-02-11T07:58:38.444Z,9.358620
2023-02-11T07:59:38.464Z,9.358616
2023-02-11T08:00:38.510Z,9.358631
2023-02-11T08:01:38.523Z,9.358613
2023-02-11T08:02:38.413Z,9.358649
2023-02-11T08:03:38.410Z,9.358679
2023-02-11T08:04:38.396Z,9.358604
2023-02-11T08:05:38.399Z,9.358562
2023-02-11T08:06:38.380Z,9.358611
2023-02-11T08:07:38.343Z,9.358562
2023-02-11T08:08:38.355Z,9.358661
2023-02-11T08:09:38.349Z,9.358658
2023-02-11T08:10:38.336Z,9.358569
2023-02-11T08:11:38.334Z,9.358579
2023-02-11T08:12:38.291Z,9.358620
2023-02-11T08:13:38.279Z,9.358666
2023-02-11T08:14:38.304Z,9.358584
2023-02-11T08:15:38.276Z,9.358573
2023-02-11T08:16:38.305Z,9.358525
2023-02-11T08:17:38.292Z,9.358454
2023-02-11T08:18:38.264Z,9.358467
2023-02-11T08:19:38.231Z,9.358485
2023-02-11T08:20:38.252Z,9.358487
2023-02-11T08:21:38.210Z,9.358386
2023-02-11T08:22:38.187Z,9.358480
2023-02-11T08:23:38.220Z,9.358517
2023-02-11T08:24:38.179Z,9.358541
2023-02-11T08:25:38.684Z,9.358589
2023-02-11T08:26:38.162Z,9.358512
2023-02-11T08:27:38.146Z,9.358463
2023-02-11T08:28:38.134Z,9.358429
2023-02-11T08:29:38.116Z,9.358472
2023-02-11T08:30:38.175Z,9.358413
2023-02-11T08:31:38.229Z,9.358439
2023-02-11T08:32:38.089Z,9.358517
2023-02-11T08:33:38.092Z,9.358577
2023-02-11T08:34:38.077Z,9.358566
2023-02-11T08:35:38.067Z,9.358598
2023-02-11T08:36:38.064Z,9.358525
2023-02-11T08:37:38.043Z,9.358529
2023-02-11T08:38:38.032Z,9.358542
2023-02-11T08:39:38.040Z,9.358552
2023-02-11T08:40:38.016Z,9.358521
2023-02-11T08:41:37.997Z,9.358498
2023-02-11T08:42:38.000Z,9.358541
2023-02-11T08:43:38.021Z,9.358494
2023-02-11T08:44:37.984Z,9.358440
2023-02-11T08:45:37.976Z,9.358478
2023-02-11T08:46:37.949Z,9.358476
2023-02-11T08:47:37.939Z,9.358489
2023-02-11T08:48:38.649Z,9.358472
2023-02-11T08:49:37.910Z,9.358491
2023-02-11T08:50:37.918Z,9.358518
2023-02-11T08:51:37.957Z,9.358542
2023-02-11T08:52:37.908Z,9.358557
2023-02-11T08:53:37.894Z,9.358602
2023-02-11T08:54:37.869Z,9.358533
2023-02-11T08:55:37.860Z,9.358551
2023-02-11T08:56:37.849Z,9.358590
2023-02-11T08:57:37.835Z,9.358549
2023-02-11T08:58:37.876Z,9.358572
2023-02-11T08:59:37.810Z,9.358634
2023-02-11T09:00:37.852Z,9.358595
2023-02-11T09:01:37.918Z,9.358557
2023-02-11T09:02:37.851Z,9.358552
2023-02-11T09:03:37.770Z,9.358534
2023-02-11T09:04:37.785Z,9.358541
2023-02-11T09:05:37.737Z,9.358564
2023-02-11T09:06:37.752Z,9.358583
2023-02-11T09:07:37.744Z,9.358564
2023-02-11T09:08:37.709Z,9.358474
2023-02-11T09:09:37.734Z,9.358570
2023-02-11T09:10:37.702Z,9.358571
2023-02-11T09:11:37.702Z,9.358565
2023-02-11T09:12:37.688Z,9.358533
2023-02-11T09:13:37.676Z,9.358593
2023-02-11T09:14:37.664Z,9.358571
2023-02-11T09:15:37.675Z,9.358584
2023-02-11T09:16:37.717Z,9.358526
2023-02-11T09:17:37.659Z,9.358562
2023-02-11T09:18:37.613Z,9.358513
2023-02-11T09:19:37.611Z,9.358535
2023-02-11T09:20:37.604Z,9.358528
2023-02-11T09:21:37.607Z,9.358569
2023-02-11T09:22:38.137Z,9.358609
2023-02-11T09:23:37.567Z,9.358613
2023-02-11T09:24:37.569Z,9.358634
2023-02-11T09:25:37.748Z,9.358663
2023-02-11T09:26:37.547Z,9.358560
2023-02-11T09:27:37.538Z,9.358537
2023-02-11T09:28:37.685Z,9.358591
2023-02-11T09:29:37.513Z,9.358645
2023-02-11T09:30:37.608Z,9.358664
2023-02-11T09:31:37.660Z,9.358643
2023-02-11T09:32:37.515Z,9.358634
2023-02-11T09:33:37.487Z,9.358571
2023-02-11T09:34:37.492Z,9.358526
2023-02-11T09:35:37.460Z,9.358597
2023-02-11T09:36:37.531Z,9.358631
2023-02-11T09:37:37.583Z,9.358598
2023-02-11T09:38:38.419Z,9.358580
2023-02-11T09:39:37.412Z,9.358636
2023-02-11T09:40:37.406Z,9.358592
2023-02-11T09:41:37.395Z,9.358549
2023-02-11T09:42:37.398Z,9.358522
2023-02-11T09:43:37.370Z,9.358541
2023-02-11T09:44:37.388Z,9.358498
2023-02-11T09:45:37.350Z,9.358513
2023-02-11T09:46:37.358Z,9.358539
2023-02-11T09:47:37.364Z,9.358531
2023-02-11T09:48:37.325Z,9.358514
2023-02-11T09:49:37.305Z,9.358501
2023-02-11T09:50:37.306Z,9.358548
2023-02-11T09:51:37.321Z,9.358505
2023-02-11T09:52:37.286Z,9.358545
2023-02-11T09:53:37.275Z,9.358504
2023-02-11T09:54:37.292Z,9.358496
2023-02-11T09:55:37.244Z,9.358515
2023-02-11T09:56:37.254Z,9.358457
2023-02-11T09:57:37.261Z,9.358456
2023-02-11T09:58:37.214Z,9.358471
2023-02-11T09:59:37.222Z,9.358508
2023-02-11T10:00:37.215Z,9.358495
2023-02-11T10:01:37.217Z,9.358462
2023-02-11T10:02:37.175Z,9.358509
2023-02-11T10:03:37.223Z,9.358514
2023-02-11T10:04:37.238Z,9.358531
2023-02-11T10:05:37.157Z,9.358524
2023-02-11T10:06:37.161Z,9.358512
2023-02-11T10:07:37.133Z,9.358543
2023-02-11T10:08:37.143Z,9.358591
2023-02-11T10:09:37.109Z,9.358535
2023-02-11T10:10:37.106Z,9.358533
2023-02-11T10:11:37.134Z,9.358568
2023-02-11T10:12:37.086Z,9.358571
2023-02-11T10:13:37.100Z,9.358576
2023-02-11T10:14:37.094Z,9.358600
2023-02-11T10:15:37.087Z,9.358569
2023-02-11T10:16:37.033Z,9.358552
2023-02-11T10:17:37.039Z,9.358512
2023-02-11T10:18:37.066Z,9.358532
2023-02-11T10:19:37.032Z,9.358558
2023-02-11T10:20:37.013Z,9.358545
2023-02-11T10:21:37.028Z,9.358508
2023-02-11T10:22:36.998Z,9.358533
2023-02-11T10:23:36.976Z,9.358536
2023-02-11T10:24:36.979Z,9.358558
2023-02-11T10:25:36.955Z,9.358561
2023-02-11T10:26:36.942Z,9.358533
2023-02-11T10:27:36.981Z,9.358526
2023-02-11T10:28:37.021Z,9.358528
2023-02-11T10:29:36.905Z,9.358510
2023-02-11T10:30:36.946Z,9.358560
2023-02-11T10:31:37.091Z,9.358573
2023-02-11T10:32:36.899Z,9.358562
2023-02-11T10:33:36.898Z,9.358547
2023-02-11T10:34:36.882Z,9.358558
2023-02-11T10:35:36.890Z,9.358521
2023-02-11T10:36:36.844Z,9.358545
2023-02-11T10:37:36.870Z,9.358545
2023-02-11T10:38:36.819Z,9.358572
2023-02-11T10:39:36.810Z,9.358602
2023-02-11T10:40:36.797Z,9.358565
2023-02-11T10:41:37.883Z,9.358503
2023-02-11T10:42:36.784Z,9.358486
2023-02-11T10:43:36.797Z,9.358500
2023-02-11T10:44:36.759Z,9.358536
2023-02-11T10:45:36.768Z,9.358573
2023-02-11T10:46:36.821Z,9.358555
2023-02-11T10:47:36.729Z,9.358541
2023-02-11T10:48:36.738Z,9.358613
2023-02-11T10:49:36.727Z,9.358537
2023-02-11T10:50:36.703Z,9.358570
2023-02-11T10:51:36.676Z,9.358545
2023-02-11T10:52:36.682Z,9.358551
2023-02-11T10:53:36.659Z,9.358532
2023-02-11T10:54:36.666Z,9.358481
2023-02-11T10:55:36.640Z,9.358420
2023-02-11T10:56:36.640Z,9.358493
2023-02-11T10:57:36.613Z,9.358571
2023-02-11T10:58:36.615Z,9.358596
2023-02-11T10:59:36.649Z,9.358570
2023-02-11T11:00:36.595Z,9.358533
2023-02-11T11:01:36.606Z,9.358591
2023-02-11T11:02:36.582Z,9.358633
2023-02-11T11:03:36.564Z,9.358690
2023-02-11T11:04:36.630Z,9.358597
2023-02-11T11:05:36.542Z,9.358594
2023-02-11T11:06:36.530Z,9.358582
2023-02-11T11:07:36.564Z,9.358525
2023-02-11T11:08:36.514Z,9.358577
2023-02-11T11:09:36.487Z,9.358602
2023-02-11T11:10:36.490Z,9.358561
2023-02-11T11:11:36.462Z,9.358570
2023-02-11T11:12:36.477Z,9.358621
2023-02-11T11:13:36.465Z,9.358614
2023-02-11T11:14:36.465Z,9.358587
2023-02-11T11:15:36.481Z,9.358563
2023-02-11T11:16:36.404Z,9.358550
2023-02-11T11:17:36.427Z,9.358652
2023-02-11T11:18:36.391Z,9.358674
2023-02-11T11:19:36.434Z,9.358634
2023-02-11T11:20:36.349Z,9.358628
2023-02-11T11:21:36.347Z,9.358630
2023-02-11T11:22:36.363Z,9.358603
2023-02-11T11:23:36.321Z,9.358641
2023-02-11T11:24:36.345Z,9.358656
2023-02-11T11:25:36.325Z,9.358635
2023-02-11T11:26:36.300Z,9.358584
2023-02-11T11:27:36.307Z,9.358660
2023-02-11T11:28:36.334Z,9.358629
2023-02-11T11:29:36.293Z,9.358568
2023-02-11T11:30:36.291Z,9.358521
2023-02-11T11:31:36.387Z,9.358662
2023-02-11T11:32:36.222Z,9.358646
2023-02-11T11:33:36.659Z,9.358628
2023-02-11T11:34:36.250Z,9.358591
2023-02-11T11:35:36.213Z,9.358554
2023-02-11T11:36:36.188Z,9.358617
2023-02-11T11:37:36.190Z,9.358618
2023-02-11T11:38:36.188Z,9.358674
2023-02-11T11:39:36.179Z,9.358630
2023-02-11T11:40:36.152Z,9.358536
2023-02-11T11:41:36.130Z,9.358549
2023-02-11T11:42:36.130Z,9.358581
2023-02-11T11:43:36.109Z,9.358508
2023-02-11T11:44:36.101Z,9.358576